Terminal Aerodrome Forecast
Issued by NWS

Home | Current Version | Previous Version | Text Only | Print | Product List | Glossary On
Versions: 1 2 3 4 5 6 7 8 9 10 11 12 13 14 15 16 17 18 19
168
FTUS43 KIWX 292327
TAFSBN
TAF
KSBN 292327Z 3000/3024 09013KT P6SM BKN100 OVC200
     FM300900 10014KT P6SM -SHRA OVC040
     FM301200 10014KT 5SM SHRA OVC015
     FM301500 10015KT 2SM SHRA VCTS OVC008CB
     FM302000 11012KT 4SM -SHRA OVC010=

USA.gov is the U.S. government's official web portal to all federal, state and local government web resources and services.